sensor_id;sensor_type;location;lat;lon;timestamp;P1;durP1;ratioP1;P2;durP2;ratioP2
4138;SDS011;2083;51.034;6.996;2022-08-19T00:01:09;18.97;;;15.10;;
4138;SDS011;2083;51.034;6.996;2022-08-19T00:03:35;17.90;;;16.00;;
4138;SDS011;2083;51.034;6.996;2022-08-19T00:06:01;22.30;;;17.13;;
4138;SDS011;2083;51.034;6.996;2022-08-19T00:08:27;22.20;;;16.87;;
4138;SDS011;2083;51.034;6.996;2022-08-19T00:10:53;22.13;;;16.90;;
4138;SDS011;2083;51.034;6.996;2022-08-19T00:13:19;25.20;;;17.30;;
4138;SDS011;2083;51.034;6.996;2022-08-19T00:15:45;21.00;;;15.83;;
4138;SDS011;2083;51.034;6.996;2022-08-19T00:18:11;28.37;;;16.57;;
4138;SDS011;2083;51.034;6.996;2022-08-19T00:20:37;18.23;;;15.93;;
4138;SDS011;2083;51.034;6.996;2022-08-19T00:23:05;21.23;;;18.50;;
4138;SDS011;2083;51.034;6.996;2022-08-19T00:25:31;21.50;;;17.33;;
4138;SDS011;2083;51.034;6.996;2022-08-19T00:27:57;22.53;;;19.20;;
4138;SDS011;2083;51.034;6.996;2022-08-19T00:30:24;20.03;;;17.30;;
4138;SDS011;2083;51.034;6.996;2022-08-19T00:32:52;17.63;;;15.63;;
4138;SDS011;2083;51.034;6.996;2022-08-19T00:35:20;19.43;;;17.03;;
4138;SDS011;2083;51.034;6.996;2022-08-19T00:37:47;24.27;;;17.17;;
4138;SDS011;2083;51.034;6.996;2022-08-19T00:40:13;18.40;;;16.50;;
4138;SDS011;2083;51.034;6.996;2022-08-19T00:42:40;18.00;;;16.03;;
4138;SDS011;2083;51.034;6.996;2022-08-19T00:45:14;18.37;;;16.40;;
4138;SDS011;2083;51.034;6.996;2022-08-19T00:47:41;17.70;;;15.80;;
4138;SDS011;2083;51.034;6.996;2022-08-19T00:50:07;19.43;;;16.90;;
4138;SDS011;2083;51.034;6.996;2022-08-19T00:52:35;26.70;;;16.53;;
4138;SDS011;2083;51.034;6.996;2022-08-19T00:55:03;19.10;;;17.10;;
4138;SDS011;2083;51.034;6.996;2022-08-19T00:57:30;25.97;;;16.97;;
4138;SDS011;2083;51.034;6.996;2022-08-19T00:59:58;22.40;;;16.47;;
4138;SDS011;2083;51.034;6.996;2022-08-19T01:02:24;20.03;;;16.73;;
4138;SDS011;2083;51.034;6.996;2022-08-19T01:04:51;25.43;;;17.10;;
4138;SDS011;2083;51.034;6.996;2022-08-19T01:07:18;26.60;;;16.00;;
4138;SDS011;2083;51.034;6.996;2022-08-19T01:09:44;20.13;;;16.13;;
4138;SDS011;2083;51.034;6.996;2022-08-19T01:12:10;21.83;;;15.73;;
4138;SDS011;2083;51.034;6.996;2022-08-19T01:14:36;19.83;;;16.60;;
4138;SDS011;2083;51.034;6.996;2022-08-19T01:17:03;18.70;;;16.73;;
4138;SDS011;2083;51.034;6.996;2022-08-19T01:19:31;18.40;;;16.40;;
4138;SDS011;2083;51.034;6.996;2022-08-19T01:24:36;21.03;;;17.70;;
4138;SDS011;2083;51.034;6.996;2022-08-19T01:27:06;22.13;;;17.57;;
4138;SDS011;2083;51.034;6.996;2022-08-19T01:29:32;18.17;;;16.00;;
4138;SDS011;2083;51.034;6.996;2022-08-19T01:31:58;18.70;;;15.20;;
4138;SDS011;2083;51.034;6.996;2022-08-19T01:34:24;18.27;;;16.13;;
4138;SDS011;2083;51.034;6.996;2022-08-19T01:36:50;19.07;;;16.83;;
4138;SDS011;2083;51.034;6.996;2022-08-19T01:39:17;21.87;;;17.40;;
4138;SDS011;2083;51.034;6.996;2022-08-19T01:41:44;21.10;;;17.40;;
4138;SDS011;2083;51.034;6.996;2022-08-19T01:44:10;28.40;;;18.03;;
4138;SDS011;2083;51.034;6.996;2022-08-19T01:46:36;19.63;;;17.00;;
4138;SDS011;2083;51.034;6.996;2022-08-19T01:49:04;24.40;;;17.83;;
4138;SDS011;2083;51.034;6.996;2022-08-19T01:51:30;19.50;;;17.10;;
4138;SDS011;2083;51.034;6.996;2022-08-19T01:53:56;19.27;;;17.27;;
4138;SDS011;2083;51.034;6.996;2022-08-19T01:56:22;20.00;;;17.50;;
4138;SDS011;2083;51.034;6.996;2022-08-19T01:58:59;20.57;;;17.30;;
4138;SDS011;2083;51.034;6.996;2022-08-19T02:01:26;19.87;;;17.70;;
4138;SDS011;2083;51.034;6.996;2022-08-19T02:03:53;18.80;;;16.80;;
4138;SDS011;2083;51.034;6.996;2022-08-19T02:06:19;24.33;;;17.17;;
4138;SDS011;2083;51.034;6.996;2022-08-19T02:08:46;21.67;;;17.90;;
4138;SDS011;2083;51.034;6.996;2022-08-19T02:11:18;22.27;;;17.70;;
4138;SDS011;2083;51.034;6.996;2022-08-19T02:13:44;21.43;;;16.87;;
4138;SDS011;2083;51.034;6.996;2022-08-19T02:16:10;19.97;;;17.87;;
4138;SDS011;2083;51.034;6.996;2022-08-19T02:18:36;18.67;;;16.20;;
4138;SDS011;2083;51.034;6.996;2022-08-19T02:21:02;19.20;;;17.20;;
4138;SDS011;2083;51.034;6.996;2022-08-19T02:23:28;19.43;;;17.30;;
4138;SDS011;2083;51.034;6.996;2022-08-19T02:25:54;19.00;;;16.77;;
4138;SDS011;2083;51.034;6.996;2022-08-19T02:28:20;19.03;;;16.70;;
4138;SDS011;2083;51.034;6.996;2022-08-19T02:30:47;20.63;;;18.43;;
4138;SDS011;2083;51.034;6.996;2022-08-19T02:33:13;22.73;;;17.53;;
4138;SDS011;2083;51.034;6.996;2022-08-19T02:35:43;19.67;;;17.67;;
4138;SDS011;2083;51.034;6.996;2022-08-19T02:38:09;19.40;;;17.50;;
4138;SDS011;2083;51.034;6.996;2022-08-19T02:40:51;20.37;;;17.63;;
4138;SDS011;2083;51.034;6.996;2022-08-19T02:43:18;18.77;;;16.97;;
4138;SDS011;2083;51.034;6.996;2022-08-19T02:45:47;22.50;;;17.67;;
4138;SDS011;2083;51.034;6.996;2022-08-19T02:48:23;17.03;;;15.23;;
4138;SDS011;2083;51.034;6.996;2022-08-19T02:50:50;20.80;;;17.00;;
4138;SDS011;2083;51.034;6.996;2022-08-19T02:53:23;18.30;;;16.10;;
4138;SDS011;2083;51.034;6.996;2022-08-19T02:55:49;24.17;;;17.07;;
4138;SDS011;2083;51.034;6.996;2022-08-19T02:58:16;21.53;;;17.13;;
4138;SDS011;2083;51.034;6.996;2022-08-19T03:00:43;20.23;;;16.20;;
4138;SDS011;2083;51.034;6.996;2022-08-19T03:03:09;19.77;;;17.67;;
4138;SDS011;2083;51.034;6.996;2022-08-19T03:05:35;18.93;;;16.93;;
4138;SDS011;2083;51.034;6.996;2022-08-19T03:08:01;18.97;;;16.20;;
4138;SDS011;2083;51.034;6.996;2022-08-19T03:10:28;24.43;;;18.10;;
4138;SDS011;2083;51.034;6.996;2022-08-19T03:12:54;17.00;;;15.30;;
4138;SDS011;2083;51.034;6.996;2022-08-19T03:15:20;18.37;;;16.50;;
4138;SDS011;2083;51.034;6.996;2022-08-19T03:17:46;18.23;;;14.97;;
4138;SDS011;2083;51.034;6.996;2022-08-19T03:20:12;22.67;;;17.57;;
4138;SDS011;2083;51.034;6.996;2022-08-19T03:22:38;20.70;;;16.40;;
4138;SDS011;2083;51.034;6.996;2022-08-19T03:25:04;18.07;;;16.20;;
4138;SDS011;2083;51.034;6.996;2022-08-19T03:27:30;22.43;;;16.67;;
4138;SDS011;2083;51.034;6.996;2022-08-19T03:29:56;18.37;;;16.47;;
4138;SDS011;2083;51.034;6.996;2022-08-19T03:32:22;19.00;;;17.10;;
4138;SDS011;2083;51.034;6.996;2022-08-19T03:34:48;19.17;;;17.13;;
4138;SDS011;2083;51.034;6.996;2022-08-19T03:37:15;18.27;;;16.30;;
4138;SDS011;2083;51.034;6.996;2022-08-19T03:39:41;18.17;;;16.27;;
4138;SDS011;2083;51.034;6.996;2022-08-19T03:42:08;18.20;;;16.17;;
4138;SDS011;2083;51.034;6.996;2022-08-19T03:44:34;24.80;;;18.07;;
4138;SDS011;2083;51.034;6.996;2022-08-19T03:47:02;19.33;;;16.90;;
4138;SDS011;2083;51.034;6.996;2022-08-19T03:49:31;20.83;;;17.20;;
4138;SDS011;2083;51.034;6.996;2022-08-19T03:51:58;19.20;;;17.27;;
4138;SDS011;2083;51.034;6.996;2022-08-19T03:54:25;22.97;;;17.30;;
4138;SDS011;2083;51.034;6.996;2022-08-19T03:56:53;20.30;;;16.90;;
4138;SDS011;2083;51.034;6.996;2022-08-19T03:59:24;17.90;;;16.03;;
4138;SDS011;2083;51.034;6.996;2022-08-19T04:01:51;26.50;;;17.33;;
4138;SDS011;2083;51.034;6.996;2022-08-19T04:04:17;20.70;;;16.83;;
4138;SDS011;2083;51.034;6.996;2022-08-19T04:06:43;21.07;;;17.50;;
4138;SDS011;2083;51.034;6.996;2022-08-19T04:09:10;18.57;;;16.10;;
4138;SDS011;2083;51.034;6.996;2022-08-19T04:11:46;21.00;;;18.40;;
4138;SDS011;2083;51.034;6.996;2022-08-19T04:14:13;19.30;;;16.90;;
4138;SDS011;2083;51.034;6.996;2022-08-19T04:16:39;18.20;;;16.30;;
4138;SDS011;2083;51.034;6.996;2022-08-19T04:19:05;25.83;;;16.63;;
4138;SDS011;2083;51.034;6.996;2022-08-19T04:21:32;17.77;;;15.93;;
4138;SDS011;2083;51.034;6.996;2022-08-19T04:23:58;20.53;;;15.63;;
4138;SDS011;2083;51.034;6.996;2022-08-19T04:26:25;19.60;;;17.30;;
4138;SDS011;2083;51.034;6.996;2022-08-19T04:28:51;22.27;;;16.50;;
4138;SDS011;2083;51.034;6.996;2022-08-19T04:31:19;18.80;;;16.20;;
4138;SDS011;2083;51.034;6.996;2022-08-19T04:33:45;18.40;;;16.50;;
4138;SDS011;2083;51.034;6.996;2022-08-19T04:36:17;19.63;;;17.03;;
4138;SDS011;2083;51.034;6.996;2022-08-19T04:38:44;21.10;;;17.90;;
4138;SDS011;2083;51.034;6.996;2022-08-19T04:41:10;19.67;;;16.80;;
4138;SDS011;2083;51.034;6.996;2022-08-19T04:43:55;24.13;;;17.90;;
4138;SDS011;2083;51.034;6.996;2022-08-19T04:46:21;23.03;;;17.63;;
4138;SDS011;2083;51.034;6.996;2022-08-19T04:48:46;24.00;;;17.73;;
4138;SDS011;2083;51.034;6.996;2022-08-19T04:51:12;19.80;;;17.53;;
4138;SDS011;2083;51.034;6.996;2022-08-19T04:53:40;22.43;;;17.83;;
4138;SDS011;2083;51.034;6.996;2022-08-19T04:56:07;21.47;;;17.50;;
4138;SDS011;2083;51.034;6.996;2022-08-19T04:58:34;22.87;;;17.83;;
4138;SDS011;2083;51.034;6.996;2022-08-19T05:01:01;21.60;;;19.00;;
4138;SDS011;2083;51.034;6.996;2022-08-19T05:03:27;25.93;;;19.30;;
4138;SDS011;2083;51.034;6.996;2022-08-19T05:05:58;23.57;;;17.67;;
4138;SDS011;2083;51.034;6.996;2022-08-19T05:08:24;20.43;;;18.23;;
4138;SDS011;2083;51.034;6.996;2022-08-19T05:10:50;22.10;;;18.20;;
4138;SDS011;2083;51.034;6.996;2022-08-19T05:13:18;21.40;;;19.10;;
4138;SDS011;2083;51.034;6.996;2022-08-19T05:15:52;34.03;;;18.93;;
4138;SDS011;2083;51.034;6.996;2022-08-19T05:18:18;26.50;;;19.33;;
4138;SDS011;2083;51.034;6.996;2022-08-19T05:21:11;26.83;;;19.30;;
4138;SDS011;2083;51.034;6.996;2022-08-19T05:23:56;29.50;;;19.23;;
4138;SDS011;2083;51.034;6.996;2022-08-19T05:26:22;22.53;;;19.73;;
4138;SDS011;2083;51.034;6.996;2022-08-19T05:28:50;35.13;;;20.40;;
4138;SDS011;2083;51.034;6.996;2022-08-19T05:31:16;23.77;;;19.73;;
4138;SDS011;2083;51.034;6.996;2022-08-19T05:33:42;24.70;;;19.07;;
4138;SDS011;2083;51.034;6.996;2022-08-19T05:36:08;37.80;;;25.03;;
4138;SDS011;2083;51.034;6.996;2022-08-19T05:38:34;50.10;;;28.43;;
4138;SDS011;2083;51.034;6.996;2022-08-19T05:41:01;53.27;;;31.93;;
4138;SDS011;2083;51.034;6.996;2022-08-19T05:43:31;52.63;;;33.97;;
4138;SDS011;2083;51.034;6.996;2022-08-19T05:45:57;55.93;;;36.03;;
4138;SDS011;2083;51.034;6.996;2022-08-19T05:48:23;66.27;;;36.77;;
4138;SDS011;2083;51.034;6.996;2022-08-19T05:50:49;57.50;;;37.80;;
4138;SDS011;2083;51.034;6.996;2022-08-19T05:53:16;84.17;;;37.87;;
4138;SDS011;2083;51.034;6.996;2022-08-19T05:55:42;59.20;;;38.17;;
4138;SDS011;2083;51.034;6.996;2022-08-19T05:58:08;60.33;;;37.60;;
4138;SDS011;2083;51.034;6.996;2022-08-19T06:00:34;72.27;;;39.80;;
4138;SDS011;2083;51.034;6.996;2022-08-19T06:03:00;67.17;;;37.57;;
4138;SDS011;2083;51.034;6.996;2022-08-19T06:05:31;69.30;;;36.90;;
4138;SDS011;2083;51.034;6.996;2022-08-19T06:07:57;60.97;;;37.77;;
4138;SDS011;2083;51.034;6.996;2022-08-19T06:10:24;62.13;;;37.73;;
4138;SDS011;2083;51.034;6.996;2022-08-19T06:12:51;64.10;;;38.40;;
4138;SDS011;2083;51.034;6.996;2022-08-19T06:15:17;67.40;;;37.80;;
4138;SDS011;2083;51.034;6.996;2022-08-19T06:17:43;68.97;;;37.67;;
4138;SDS011;2083;51.034;6.996;2022-08-19T06:20:13;67.60;;;39.10;;
4138;SDS011;2083;51.034;6.996;2022-08-19T06:22:43;64.67;;;37.83;;
4138;SDS011;2083;51.034;6.996;2022-08-19T06:25:11;67.53;;;39.57;;
4138;SDS011;2083;51.034;6.996;2022-08-19T06:27:37;65.57;;;36.90;;
4138;SDS011;2083;51.034;6.996;2022-08-19T06:30:04;60.93;;;39.87;;
4138;SDS011;2083;51.034;6.996;2022-08-19T06:32:30;60.30;;;36.50;;
4138;SDS011;2083;51.034;6.996;2022-08-19T06:34:56;60.10;;;36.87;;
4138;SDS011;2083;51.034;6.996;2022-08-19T06:37:22;54.70;;;36.70;;
4138;SDS011;2083;51.034;6.996;2022-08-19T06:39:48;54.77;;;38.03;;
4138;SDS011;2083;51.034;6.996;2022-08-19T06:42:14;55.57;;;35.40;;
4138;SDS011;2083;51.034;6.996;2022-08-19T06:44:43;51.80;;;33.67;;
4138;SDS011;2083;51.034;6.996;2022-08-19T06:47:11;51.37;;;31.77;;
4138;SDS011;2083;51.034;6.996;2022-08-19T06:49:38;46.37;;;30.93;;
4138;SDS011;2083;51.034;6.996;2022-08-19T06:52:04;49.77;;;31.73;;
4138;SDS011;2083;51.034;6.996;2022-08-19T06:54:31;42.60;;;31.40;;
4138;SDS011;2083;51.034;6.996;2022-08-19T06:57:01;46.87;;;31.07;;
4138;SDS011;2083;51.034;6.996;2022-08-19T06:59:27;39.47;;;29.70;;
4138;SDS011;2083;51.034;6.996;2022-08-19T07:01:56;44.57;;;30.30;;
4138;SDS011;2083;51.034;6.996;2022-08-19T07:04:25;47.80;;;31.50;;
4138;SDS011;2083;51.034;6.996;2022-08-19T07:07:04;45.87;;;32.57;;
4138;SDS011;2083;51.034;6.996;2022-08-19T07:09:34;40.03;;;29.03;;
4138;SDS011;2083;51.034;6.996;2022-08-19T07:12:02;46.87;;;28.80;;
4138;SDS011;2083;51.034;6.996;2022-08-19T07:14:29;38.60;;;25.10;;
4138;SDS011;2083;51.034;6.996;2022-08-19T07:16:56;33.50;;;26.97;;
4138;SDS011;2083;51.034;6.996;2022-08-19T07:19:23;34.40;;;23.93;;
4138;SDS011;2083;51.034;6.996;2022-08-19T07:21:53;41.47;;;27.90;;
4138;SDS011;2083;51.034;6.996;2022-08-19T07:24:20;35.00;;;25.13;;
4138;SDS011;2083;51.034;6.996;2022-08-19T07:26:48;37.73;;;24.13;;
4138;SDS011;2083;51.034;6.996;2022-08-19T07:29:15;40.87;;;26.07;;
4138;SDS011;2083;51.034;6.996;2022-08-19T07:31:41;37.63;;;25.57;;
4138;SDS011;2083;51.034;6.996;2022-08-19T07:34:11;40.17;;;26.57;;
4138;SDS011;2083;51.034;6.996;2022-08-19T07:36:40;37.03;;;28.20;;
4138;SDS011;2083;51.034;6.996;2022-08-19T07:39:18;38.00;;;26.77;;
4138;SDS011;2083;51.034;6.996;2022-08-19T07:41:45;44.40;;;30.00;;
4138;SDS011;2083;51.034;6.996;2022-08-19T07:44:11;40.37;;;27.60;;
4138;SDS011;2083;51.034;6.996;2022-08-19T07:46:39;40.27;;;26.77;;
4138;SDS011;2083;51.034;6.996;2022-08-19T07:49:06;41.43;;;27.63;;
4138;SDS011;2083;51.034;6.996;2022-08-19T07:51:38;41.83;;;29.20;;
4138;SDS011;2083;51.034;6.996;2022-08-19T07:54:04;44.47;;;28.27;;
4138;SDS011;2083;51.034;6.996;2022-08-19T07:56:30;47.27;;;26.80;;
4138;SDS011;2083;51.034;6.996;2022-08-19T07:58:57;39.93;;;27.90;;
4138;SDS011;2083;51.034;6.996;2022-08-19T08:01:24;46.33;;;29.07;;
4138;SDS011;2083;51.034;6.996;2022-08-19T08:03:51;37.53;;;25.03;;
4138;SDS011;2083;51.034;6.996;2022-08-19T08:06:36;38.47;;;25.10;;
4138;SDS011;2083;51.034;6.996;2022-08-19T08:09:23;58.30;;;27.63;;
4138;SDS011;2083;51.034;6.996;2022-08-19T08:14:16;41.53;;;29.03;;
4138;SDS011;2083;51.034;6.996;2022-08-19T08:16:43;48.30;;;28.40;;
4138;SDS011;2083;51.034;6.996;2022-08-19T08:19:10;53.13;;;28.57;;
4138;SDS011;2083;51.034;6.996;2022-08-19T08:21:36;44.93;;;26.97;;
4138;SDS011;2083;51.034;6.996;2022-08-19T08:24:05;46.43;;;28.30;;
4138;SDS011;2083;51.034;6.996;2022-08-19T08:26:31;43.90;;;28.47;;
4138;SDS011;2083;51.034;6.996;2022-08-19T08:28:57;48.50;;;31.97;;
4138;SDS011;2083;51.034;6.996;2022-08-19T08:31:23;47.60;;;28.60;;
4138;SDS011;2083;51.034;6.996;2022-08-19T08:33:49;43.10;;;29.10;;
4138;SDS011;2083;51.034;6.996;2022-08-19T08:36:16;56.23;;;31.40;;
4138;SDS011;2083;51.034;6.996;2022-08-19T08:38:43;41.13;;;30.17;;
4138;SDS011;2083;51.034;6.996;2022-08-19T08:41:15;42.30;;;29.30;;
4138;SDS011;2083;51.034;6.996;2022-08-19T08:43:45;51.10;;;30.37;;
4138;SDS011;2083;51.034;6.996;2022-08-19T08:46:15;41.80;;;29.13;;
4138;SDS011;2083;51.034;6.996;2022-08-19T08:48:49;44.73;;;28.53;;
4138;SDS011;2083;51.034;6.996;2022-08-19T08:51:29;42.63;;;29.17;;
4138;SDS011;2083;51.034;6.996;2022-08-19T08:53:58;39.23;;;27.03;;
4138;SDS011;2083;51.034;6.996;2022-08-19T08:56:24;40.47;;;27.50;;
4138;SDS011;2083;51.034;6.996;2022-08-19T08:58:53;40.70;;;26.63;;
4138;SDS011;2083;51.034;6.996;2022-08-19T09:01:21;37.10;;;26.97;;
4138;SDS011;2083;51.034;6.996;2022-08-19T09:03:47;52.77;;;27.87;;
4138;SDS011;2083;51.034;6.996;2022-08-19T09:11:19;47.63;;;25.73;;
4138;SDS011;2083;51.034;6.996;2022-08-19T09:16:26;33.57;;;23.83;;
4138;SDS011;2083;51.034;6.996;2022-08-19T09:18:57;46.07;;;24.80;;
4138;SDS011;2083;51.034;6.996;2022-08-19T09:21:24;34.70;;;25.13;;
4138;SDS011;2083;51.034;6.996;2022-08-19T09:23:52;37.17;;;23.20;;
4138;SDS011;2083;51.034;6.996;2022-08-19T09:26:20;40.30;;;25.97;;
4138;SDS011;2083;51.034;6.996;2022-08-19T09:28:47;39.37;;;26.13;;
4138;SDS011;2083;51.034;6.996;2022-08-19T09:31:14;44.87;;;30.77;;
4138;SDS011;2083;51.034;6.996;2022-08-19T09:33:40;46.33;;;26.70;;
4138;SDS011;2083;51.034;6.996;2022-08-19T09:36:09;39.00;;;24.10;;
4138;SDS011;2083;51.034;6.996;2022-08-19T09:38:36;37.80;;;26.03;;
4138;SDS011;2083;51.034;6.996;2022-08-19T09:41:09;45.40;;;25.77;;
4138;SDS011;2083;51.034;6.996;2022-08-19T09:43:38;39.60;;;26.30;;
4138;SDS011;2083;51.034;6.996;2022-08-19T09:46:05;35.47;;;24.03;;
4138;SDS011;2083;51.034;6.996;2022-08-19T09:48:32;40.30;;;25.50;;
4138;SDS011;2083;51.034;6.996;2022-08-19T09:53:30;38.63;;;24.00;;
4138;SDS011;2083;51.034;6.996;2022-08-19T09:55:56;30.37;;;21.57;;
4138;SDS011;2083;51.034;6.996;2022-08-19T09:58:22;35.00;;;18.97;;
4138;SDS011;2083;51.034;6.996;2022-08-19T10:00:52;31.50;;;17.90;;
4138;SDS011;2083;51.034;6.996;2022-08-19T10:03:19;25.50;;;20.47;;
4138;SDS011;2083;51.034;6.996;2022-08-19T10:05:45;36.40;;;21.67;;
4138;SDS011;2083;51.034;6.996;2022-08-19T10:08:15;29.40;;;19.60;;
4138;SDS011;2083;51.034;6.996;2022-08-19T10:10:41;22.53;;;17.80;;
4138;SDS011;2083;51.034;6.996;2022-08-19T10:13:10;23.57;;;19.50;;
4138;SDS011;2083;51.034;6.996;2022-08-19T10:15:38;22.30;;;17.73;;
4138;SDS011;2083;51.034;6.996;2022-08-19T10:18:05;17.43;;;15.03;;
4138;SDS011;2083;51.034;6.996;2022-08-19T10:20:31;19.10;;;13.47;;
4138;SDS011;2083;51.034;6.996;2022-08-19T10:22:57;13.70;;;12.37;;
4138;SDS011;2083;51.034;6.996;2022-08-19T10:25:24;15.90;;;13.20;;
4138;SDS011;2083;51.034;6.996;2022-08-19T10:27:51;16.37;;;13.70;;
4138;SDS011;2083;51.034;6.996;2022-08-19T10:30:17;18.53;;;14.23;;
4138;SDS011;2083;51.034;6.996;2022-08-19T10:32:44;21.43;;;14.67;;
4138;SDS011;2083;51.034;6.996;2022-08-19T10:35:11;17.80;;;12.67;;
4138;SDS011;2083;51.034;6.996;2022-08-19T10:37:38;18.60;;;15.23;;
4138;SDS011;2083;51.034;6.996;2022-08-19T10:40:07;18.00;;;16.20;;
4138;SDS011;2083;51.034;6.996;2022-08-19T10:42:35;20.57;;;14.77;;
4138;SDS011;2083;51.034;6.996;2022-08-19T10:45:03;23.97;;;12.50;;
4138;SDS011;2083;51.034;6.996;2022-08-19T10:47:31;22.03;;;13.70;;
4138;SDS011;2083;51.034;6.996;2022-08-19T10:49:57;21.13;;;15.47;;
4138;SDS011;2083;51.034;6.996;2022-08-19T10:52:43;16.00;;;14.40;;
4138;SDS011;2083;51.034;6.996;2022-08-19T10:55:09;16.03;;;8.07;;
4138;SDS011;2083;51.034;6.996;2022-08-19T10:57:54;5.97;;;5.40;;
4138;SDS011;2083;51.034;6.996;2022-08-19T11:00:20;0.83;;;0.83;;
4138;SDS011;2083;51.034;6.996;2022-08-19T11:02:47;0.50;;;0.27;;
4138;SDS011;2083;51.034;6.996;2022-08-19T11:05:14;14.23;;;11.30;;
4138;SDS011;2083;51.034;6.996;2022-08-19T11:07:40;19.00;;;12.57;;
4138;SDS011;2083;51.034;6.996;2022-08-19T11:10:07;13.23;;;11.83;;
4138;SDS011;2083;51.034;6.996;2022-08-19T11:12:37;19.63;;;12.20;;
4138;SDS011;2083;51.034;6.996;2022-08-19T11:15:04;14.00;;;11.70;;
4138;SDS011;2083;51.034;6.996;2022-08-19T11:17:35;15.87;;;11.40;;
4138;SDS011;2083;51.034;6.996;2022-08-19T11:20:05;15.20;;;13.60;;
4138;SDS011;2083;51.034;6.996;2022-08-19T11:22:32;16.00;;;12.43;;
4138;SDS011;2083;51.034;6.996;2022-08-19T11:24:59;16.00;;;14.40;;
4138;SDS011;2083;51.034;6.996;2022-08-19T11:27:39;20.23;;;13.80;;
4138;SDS011;2083;51.034;6.996;2022-08-19T11:30:08;24.13;;;12.83;;
4138;SDS011;2083;51.034;6.996;2022-08-19T11:32:37;12.53;;;11.13;;
4138;SDS011;2083;51.034;6.996;2022-08-19T11:35:06;12.97;;;10.50;;
4138;SDS011;2083;51.034;6.996;2022-08-19T11:37:32;15.23;;;12.43;;
4138;SDS011;2083;51.034;6.996;2022-08-19T11:40:02;18.37;;;11.43;;
4138;SDS011;2083;51.034;6.996;2022-08-19T11:42:28;12.30;;;11.20;;
4138;SDS011;2083;51.034;6.996;2022-08-19T11:45:14;11.43;;;10.20;;
4138;SDS011;2083;51.034;6.996;2022-08-19T11:47:40;14.13;;;9.93;;
4138;SDS011;2083;51.034;6.996;2022-08-19T11:50:05;15.43;;;10.13;;
4138;SDS011;2083;51.034;6.996;2022-08-19T11:52:32;11.17;;;10.17;;
4138;SDS011;2083;51.034;6.996;2022-08-19T11:54:58;13.90;;;12.40;;
4138;SDS011;2083;51.034;6.996;2022-08-19T11:57:23;17.20;;;11.87;;
4138;SDS011;2083;51.034;6.996;2022-08-19T11:59:50;12.97;;;11.20;;
4138;SDS011;2083;51.034;6.996;2022-08-19T12:02:17;19.53;;;12.50;;
4138;SDS011;2083;51.034;6.996;2022-08-19T12:04:44;28.57;;;11.70;;
4138;SDS011;2083;51.034;6.996;2022-08-19T12:07:09;15.10;;;12.07;;
4138;SDS011;2083;51.034;6.996;2022-08-19T12:09:36;15.63;;;11.43;;
4138;SDS011;2083;51.034;6.996;2022-08-19T12:12:04;12.50;;;11.40;;
4138;SDS011;2083;51.034;6.996;2022-08-19T12:14:30;11.93;;;10.83;;
4138;SDS011;2083;51.034;6.996;2022-08-19T12:16:57;12.70;;;11.40;;
4138;SDS011;2083;51.034;6.996;2022-08-19T12:19:23;14.20;;;10.63;;
4138;SDS011;2083;51.034;6.996;2022-08-19T12:21:49;13.17;;;11.97;;
4138;SDS011;2083;51.034;6.996;2022-08-19T12:24:16;15.63;;;10.20;;
4138;SDS011;2083;51.034;6.996;2022-08-19T12:26:47;10.30;;;9.40;;
4138;SDS011;2083;51.034;6.996;2022-08-19T12:29:14;10.70;;;9.60;;
4138;SDS011;2083;51.034;6.996;2022-08-19T12:31:40;12.37;;;8.67;;
4138;SDS011;2083;51.034;6.996;2022-08-19T12:34:06;11.20;;;10.07;;
4138;SDS011;2083;51.034;6.996;2022-08-19T12:36:33;12.27;;;9.63;;
4138;SDS011;2083;51.034;6.996;2022-08-19T12:38:59;10.40;;;8.43;;
4138;SDS011;2083;51.034;6.996;2022-08-19T12:41:25;10.57;;;9.13;;
4138;SDS011;2083;51.034;6.996;2022-08-19T12:43:51;9.40;;;8.60;;
4138;SDS011;2083;51.034;6.996;2022-08-19T12:46:18;9.27;;;8.47;;
4138;SDS011;2083;51.034;6.996;2022-08-19T12:48:44;14.47;;;8.87;;
4138;SDS011;2083;51.034;6.996;2022-08-19T12:51:12;14.40;;;9.03;;
4138;SDS011;2083;51.034;6.996;2022-08-19T12:53:39;9.30;;;8.40;;
4138;SDS011;2083;51.034;6.996;2022-08-19T12:56:05;15.63;;;9.37;;
4138;SDS011;2083;51.034;6.996;2022-08-19T12:58:32;11.83;;;9.20;;
4138;SDS011;2083;51.034;6.996;2022-08-19T13:00:59;9.70;;;8.80;;
4138;SDS011;2083;51.034;6.996;2022-08-19T13:03:25;15.23;;;9.30;;
4138;SDS011;2083;51.034;6.996;2022-08-19T13:05:54;9.13;;;8.23;;
4138;SDS011;2083;51.034;6.996;2022-08-19T13:08:20;8.83;;;8.13;;
4138;SDS011;2083;51.034;6.996;2022-08-19T13:10:46;14.10;;;8.07;;
4138;SDS011;2083;51.034;6.996;2022-08-19T13:13:12;8.37;;;7.63;;
4138;SDS011;2083;51.034;6.996;2022-08-19T13:15:39;7.60;;;6.90;;
4138;SDS011;2083;51.034;6.996;2022-08-19T13:18:07;8.90;;;7.50;;
4138;SDS011;2083;51.034;6.996;2022-08-19T13:20:34;8.50;;;7.60;;
4138;SDS011;2083;51.034;6.996;2022-08-19T13:23:00;11.83;;;9.03;;
4138;SDS011;2083;51.034;6.996;2022-08-19T13:25:26;12.70;;;8.27;;
4138;SDS011;2083;51.034;6.996;2022-08-19T13:27:52;11.03;;;8.83;;
4138;SDS011;2083;51.034;6.996;2022-08-19T13:30:20;9.60;;;8.60;;
4138;SDS011;2083;51.034;6.996;2022-08-19T13:33:05;10.47;;;8.40;;
4138;SDS011;2083;51.034;6.996;2022-08-19T13:35:44;9.67;;;8.70;;
4138;SDS011;2083;51.034;6.996;2022-08-19T13:38:10;10.07;;;7.90;;
4138;SDS011;2083;51.034;6.996;2022-08-19T13:40:37;8.90;;;8.07;;
4138;SDS011;2083;51.034;6.996;2022-08-19T13:43:04;10.63;;;5.27;;
4138;SDS011;2083;51.034;6.996;2022-08-19T13:45:30;14.60;;;7.67;;
4138;SDS011;2083;51.034;6.996;2022-08-19T13:48:00;14.90;;;7.77;;
4138;SDS011;2083;51.034;6.996;2022-08-19T13:50:29;7.67;;;6.97;;
4138;SDS011;2083;51.034;6.996;2022-08-19T13:52:58;7.13;;;6.53;;
4138;SDS011;2083;51.034;6.996;2022-08-19T13:55:25;11.10;;;7.10;;
4138;SDS011;2083;51.034;6.996;2022-08-19T13:57:57;8.23;;;6.23;;
4138;SDS011;2083;51.034;6.996;2022-08-19T14:00:24;8.03;;;6.90;;
4138;SDS011;2083;51.034;6.996;2022-08-19T14:02:51;11.67;;;6.60;;
4138;SDS011;2083;51.034;6.996;2022-08-19T14:05:18;7.80;;;6.27;;
4138;SDS011;2083;51.034;6.996;2022-08-19T14:07:44;12.97;;;6.10;;
4138;SDS011;2083;51.034;6.996;2022-08-19T14:10:11;7.40;;;6.27;;
4138;SDS011;2083;51.034;6.996;2022-08-19T14:12:37;9.00;;;5.30;;
4138;SDS011;2083;51.034;6.996;2022-08-19T14:15:04;5.67;;;5.17;;
4138;SDS011;2083;51.034;6.996;2022-08-19T14:17:30;5.93;;;5.43;;
4138;SDS011;2083;51.034;6.996;2022-08-19T14:19:57;6.37;;;5.87;;
4138;SDS011;2083;51.034;6.996;2022-08-19T14:22:25;7.90;;;5.30;;
4138;SDS011;2083;51.034;6.996;2022-08-19T14:24:51;7.53;;;6.83;;
4138;SDS011;2083;51.034;6.996;2022-08-19T14:27:17;10.20;;;6.23;;
4138;SDS011;2083;51.034;6.996;2022-08-19T14:29:43;10.93;;;6.67;;
4138;SDS011;2083;51.034;6.996;2022-08-19T14:32:10;6.33;;;5.77;;
4138;SDS011;2083;51.034;6.996;2022-08-19T14:34:37;7.40;;;5.87;;
4138;SDS011;2083;51.034;6.996;2022-08-19T14:37:03;5.43;;;5.03;;
4138;SDS011;2083;51.034;6.996;2022-08-19T14:39:29;7.97;;;5.23;;
4138;SDS011;2083;51.034;6.996;2022-08-19T14:41:55;5.40;;;4.57;;
4138;SDS011;2083;51.034;6.996;2022-08-19T14:44:21;5.30;;;5.00;;
4138;SDS011;2083;51.034;6.996;2022-08-19T14:46:48;5.83;;;4.43;;
4138;SDS011;2083;51.034;6.996;2022-08-19T14:49:14;5.37;;;4.87;;
4138;SDS011;2083;51.034;6.996;2022-08-19T14:51:40;6.37;;;5.77;;
4138;SDS011;2083;51.034;6.996;2022-08-19T14:54:06;4.80;;;4.50;;
4138;SDS011;2083;51.034;6.996;2022-08-19T14:56:32;5.67;;;5.13;;
4138;SDS011;2083;51.034;6.996;2022-08-19T14:59:01;9.33;;;4.73;;
4138;SDS011;2083;51.034;6.996;2022-08-19T15:01:27;6.10;;;4.60;;
4138;SDS011;2083;51.034;6.996;2022-08-19T15:03:54;5.20;;;4.40;;
4138;SDS011;2083;51.034;6.996;2022-08-19T15:06:21;9.63;;;5.10;;
4138;SDS011;2083;51.034;6.996;2022-08-19T15:08:47;8.87;;;4.23;;
4138;SDS011;2083;51.034;6.996;2022-08-19T15:11:16;7.60;;;4.27;;